sensor_id;sensor_type;location;lat;lon;timestamp;temperature;humidity
66312;HTU21D;53114;51.138;6.008;2023-05-10T00:00:34;14.51;118.99
66312;HTU21D;53114;51.138;6.008;2023-05-10T00:03:00;14.43;118.99
66312;HTU21D;53114;51.138;6.008;2023-05-10T00:05:26;14.39;118.99
66312;HTU21D;53114;51.138;6.008;2023-05-10T00:07:52;14.37;118.99
66312;HTU21D;53114;51.138;6.008;2023-05-10T00:10:18;14.37;118.99
66312;HTU21D;53114;51.138;6.008;2023-05-10T00:12:44;14.39;118.99
66312;HTU21D;53114;51.138;6.008;2023-05-10T00:15:10;14.39;118.99
66312;HTU21D;53114;51.138;6.008;2023-05-10T00:17:36;14.42;118.99
66312;HTU21D;53114;51.138;6.008;2023-05-10T00:20:02;14.45;118.99
66312;HTU21D;53114;51.138;6.008;2023-05-10T00:22:30;14.50;118.99
66312;HTU21D;53114;51.138;6.008;2023-05-10T00:24:57;14.54;118.99
66312;HTU21D;53114;51.138;6.008;2023-05-10T00:27:23;14.56;118.99
66312;HTU21D;53114;51.138;6.008;2023-05-10T00:29:49;14.62;118.99
66312;HTU21D;53114;51.138;6.008;2023-05-10T00:32:15;14.59;118.99
66312;HTU21D;53114;51.138;6.008;2023-05-10T00:34:42;14.56;118.99
66312;HTU21D;53114;51.138;6.008;2023-05-10T00:37:08;14.54;118.99
66312;HTU21D;53114;51.138;6.008;2023-05-10T00:39:34;14.51;118.99
66312;HTU21D;53114;51.138;6.008;2023-05-10T00:42:00;14.48;118.99
66312;HTU21D;53114;51.138;6.008;2023-05-10T00:44:26;14.48;118.99
66312;HTU21D;53114;51.138;6.008;2023-05-10T00:46:53;14.42;118.99
66312;HTU21D;53114;51.138;6.008;2023-05-10T00:49:20;14.36;118.99
66312;HTU21D;53114;51.138;6.008;2023-05-10T00:51:47;14.36;118.99
66312;HTU21D;53114;51.138;6.008;2023-05-10T00:54:15;14.41;118.99
66312;HTU21D;53114;51.138;6.008;2023-05-10T00:56:41;14.44;118.99
66312;HTU21D;53114;51.138;6.008;2023-05-10T00:59:08;14.45;118.99
66312;HTU21D;53114;51.138;6.008;2023-05-10T01:01:35;14.41;118.99
66312;HTU21D;53114;51.138;6.008;2023-05-10T01:04:01;14.35;118.99
66312;HTU21D;53114;51.138;6.008;2023-05-10T01:06:28;14.28;118.99
66312;HTU21D;53114;51.138;6.008;2023-05-10T01:08:55;14.23;118.99
66312;HTU21D;53114;51.138;6.008;2023-05-10T01:11:21;14.21;118.99
66312;HTU21D;53114;51.138;6.008;2023-05-10T01:13:56;14.17;118.99
66312;HTU21D;53114;51.138;6.008;2023-05-10T01:16:24;14.17;118.99
66312;HTU21D;53114;51.138;6.008;2023-05-10T01:18:52;14.15;118.99
66312;HTU21D;53114;51.138;6.008;2023-05-10T01:21:51;14.18;118.99
66312;HTU21D;53114;51.138;6.008;2023-05-10T01:24:25;14.22;118.99
66312;HTU21D;53114;51.138;6.008;2023-05-10T01:32:45;14.29;118.99
66312;HTU21D;53114;51.138;6.008;2023-05-10T01:40:57;14.32;118.99
66312;HTU21D;53114;51.138;6.008;2023-05-10T01:43:32;14.34;118.99
66312;HTU21D;53114;51.138;6.008;2023-05-10T01:46:09;14.35;118.99
66312;HTU21D;53114;51.138;6.008;2023-05-10T01:48:58;14.35;118.99
66312;HTU21D;53114;51.138;6.008;2023-05-10T01:51:42;14.36;118.99
66312;HTU21D;53114;51.138;6.008;2023-05-10T01:54:13;14.37;118.99
66312;HTU21D;53114;51.138;6.008;2023-05-10T01:56:40;14.41;118.99
66312;HTU21D;53114;51.138;6.008;2023-05-10T01:59:18;14.44;118.99
66312;HTU21D;53114;51.138;6.008;2023-05-10T02:01:47;14.49;118.99
66312;HTU21D;53114;51.138;6.008;2023-05-10T02:04:17;14.53;118.99
66312;HTU21D;53114;51.138;6.008;2023-05-10T02:06:47;14.55;118.99
66312;HTU21D;53114;51.138;6.008;2023-05-10T02:09:15;14.56;118.99
66312;HTU21D;53114;51.138;6.008;2023-05-10T02:11:43;14.55;118.99
66312;HTU21D;53114;51.138;6.008;2023-05-10T02:14:11;14.53;118.99
66312;HTU21D;53114;51.138;6.008;2023-05-10T02:16:39;14.48;118.99
66312;HTU21D;53114;51.138;6.008;2023-05-10T02:19:07;14.48;118.99
66312;HTU21D;53114;51.138;6.008;2023-05-10T02:21:35;14.48;118.99
66312;HTU21D;53114;51.138;6.008;2023-05-10T02:24:04;14.44;118.99
66312;HTU21D;53114;51.138;6.008;2023-05-10T02:26:34;14.41;118.99
66312;HTU21D;53114;51.138;6.008;2023-05-10T02:29:03;14.42;118.99
66312;HTU21D;53114;51.138;6.008;2023-05-10T02:31:32;14.40;118.99
66312;HTU21D;53114;51.138;6.008;2023-05-10T02:34:01;14.39;118.99
66312;HTU21D;53114;51.138;6.008;2023-05-10T02:36:29;14.40;118.99
66312;HTU21D;53114;51.138;6.008;2023-05-10T02:38:58;14.38;118.99
66312;HTU21D;53114;51.138;6.008;2023-05-10T02:41:27;14.37;118.99
66312;HTU21D;53114;51.138;6.008;2023-05-10T02:43:59;14.37;118.99
66312;HTU21D;53114;51.138;6.008;2023-05-10T02:46:26;14.35;118.99
66312;HTU21D;53114;51.138;6.008;2023-05-10T02:48:52;14.36;118.99
66312;HTU21D;53114;51.138;6.008;2023-05-10T02:51:24;14.35;118.99
66312;HTU21D;53114;51.138;6.008;2023-05-10T02:53:53;14.35;118.99
66312;HTU21D;53114;51.138;6.008;2023-05-10T02:56:28;14.30;118.99
66312;HTU21D;53114;51.138;6.008;2023-05-10T02:58:55;14.29;118.99
66312;HTU21D;53114;51.138;6.008;2023-05-10T03:01:21;14.29;118.99
66312;HTU21D;53114;51.138;6.008;2023-05-10T03:03:48;14.29;118.99
66312;HTU21D;53114;51.138;6.008;2023-05-10T03:06:14;14.27;118.99
66312;HTU21D;53114;51.138;6.008;2023-05-10T03:08:43;14.26;118.99
66312;HTU21D;53114;51.138;6.008;2023-05-10T03:17:10;14.17;118.99
66312;HTU21D;53114;51.138;6.008;2023-05-10T03:19:53;14.17;118.99
66312;HTU21D;53114;51.138;6.008;2023-05-10T03:22:31;14.13;118.99
66312;HTU21D;53114;51.138;6.008;2023-05-10T03:25:00;14.10;118.99
66312;HTU21D;53114;51.138;6.008;2023-05-10T03:27:32;14.10;118.99
66312;HTU21D;53114;51.138;6.008;2023-05-10T03:30:02;14.10;118.99
66312;HTU21D;53114;51.138;6.008;2023-05-10T03:32:31;14.11;118.99
66312;HTU21D;53114;51.138;6.008;2023-05-10T03:34:58;14.07;118.99
66312;HTU21D;53114;51.138;6.008;2023-05-10T03:37:25;14.04;118.99
66312;HTU21D;53114;51.138;6.008;2023-05-10T03:39:51;14.01;118.99
66312;HTU21D;53114;51.138;6.008;2023-05-10T03:42:17;14.00;118.99
66312;HTU21D;53114;51.138;6.008;2023-05-10T03:44:43;13.97;118.99
66312;HTU21D;53114;51.138;6.008;2023-05-10T03:47:09;13.92;118.99
66312;HTU21D;53114;51.138;6.008;2023-05-10T03:49:35;13.88;118.99
66312;HTU21D;53114;51.138;6.008;2023-05-10T03:52:01;13.83;118.99
66312;HTU21D;53114;51.138;6.008;2023-05-10T03:54:28;13.80;118.99
66312;HTU21D;53114;51.138;6.008;2023-05-10T03:56:53;13.78;118.99
66312;HTU21D;53114;51.138;6.008;2023-05-10T03:59:21;13.76;118.99
66312;HTU21D;53114;51.138;6.008;2023-05-10T04:01:46;13.78;118.99
66312;HTU21D;53114;51.138;6.008;2023-05-10T04:04:12;13.81;118.99
66312;HTU21D;53114;51.138;6.008;2023-05-10T04:06:52;13.83;118.99
66312;HTU21D;53114;51.138;6.008;2023-05-10T04:09:30;13.88;118.99
66312;HTU21D;53114;51.138;6.008;2023-05-10T04:12:06;13.85;118.99
66312;HTU21D;53114;51.138;6.008;2023-05-10T04:14:32;13.86;118.99
66312;HTU21D;53114;51.138;6.008;2023-05-10T04:17:04;13.84;118.99
66312;HTU21D;53114;51.138;6.008;2023-05-10T04:19:34;13.83;118.99
66312;HTU21D;53114;51.138;6.008;2023-05-10T04:22:11;13.82;118.99
66312;HTU21D;53114;51.138;6.008;2023-05-10T04:24:40;13.78;118.99
66312;HTU21D;53114;51.138;6.008;2023-05-10T04:27:06;13.74;118.99
66312;HTU21D;53114;51.138;6.008;2023-05-10T04:29:32;13.70;118.99
66312;HTU21D;53114;51.138;6.008;2023-05-10T04:31:58;13.67;118.99
66312;HTU21D;53114;51.138;6.008;2023-05-10T04:34:25;13.68;118.99
66312;HTU21D;53114;51.138;6.008;2023-05-10T04:37:11;13.70;118.99
66312;HTU21D;53114;51.138;6.008;2023-05-10T04:39:40;13.70;118.99
66312;HTU21D;53114;51.138;6.008;2023-05-10T04:42:06;13.74;118.99
66312;HTU21D;53114;51.138;6.008;2023-05-10T04:44:38;13.77;118.99
66312;HTU21D;53114;51.138;6.008;2023-05-10T04:47:04;13.76;118.99
66312;HTU21D;53114;51.138;6.008;2023-05-10T04:49:33;13.80;118.99
66312;HTU21D;53114;51.138;6.008;2023-05-10T04:52:01;13.84;118.99
66312;HTU21D;53114;51.138;6.008;2023-05-10T04:54:30;13.90;118.99
66312;HTU21D;53114;51.138;6.008;2023-05-10T04:56:59;13.94;118.99
66312;HTU21D;53114;51.138;6.008;2023-05-10T04:59:30;13.99;118.99
66312;HTU21D;53114;51.138;6.008;2023-05-10T05:01:56;14.01;118.99
66312;HTU21D;53114;51.138;6.008;2023-05-10T05:04:27;14.05;118.99
66312;HTU21D;53114;51.138;6.008;2023-05-10T05:06:55;14.04;118.99
66312;HTU21D;53114;51.138;6.008;2023-05-10T05:09:22;14.01;118.99
66312;HTU21D;53114;51.138;6.008;2023-05-10T05:11:48;14.05;118.99
66312;HTU21D;53114;51.138;6.008;2023-05-10T05:14:17;14.04;118.99
66312;HTU21D;53114;51.138;6.008;2023-05-10T05:16:45;14.03;118.99
66312;HTU21D;53114;51.138;6.008;2023-05-10T05:19:11;14.01;118.99
66312;HTU21D;53114;51.138;6.008;2023-05-10T05:21:41;13.99;118.99
66312;HTU21D;53114;51.138;6.008;2023-05-10T05:24:07;13.99;118.99
66312;HTU21D;53114;51.138;6.008;2023-05-10T05:26:36;14.01;118.99
66312;HTU21D;53114;51.138;6.008;2023-05-10T05:29:20;14.08;118.99
66312;HTU21D;53114;51.138;6.008;2023-05-10T05:31:49;14.11;118.99
66312;HTU21D;53114;51.138;6.008;2023-05-10T05:34:17;14.12;118.99
66312;HTU21D;53114;51.138;6.008;2023-05-10T05:36:48;14.12;118.99
66312;HTU21D;53114;51.138;6.008;2023-05-10T05:39:14;14.12;118.99
66312;HTU21D;53114;51.138;6.008;2023-05-10T05:41:40;14.13;118.99
66312;HTU21D;53114;51.138;6.008;2023-05-10T05:44:07;14.14;118.99
66312;HTU21D;53114;51.138;6.008;2023-05-10T05:46:33;14.13;118.99
66312;HTU21D;53114;51.138;6.008;2023-05-10T05:48:59;14.10;118.99
66312;HTU21D;53114;51.138;6.008;2023-05-10T05:51:33;14.08;118.99
66312;HTU21D;53114;51.138;6.008;2023-05-10T05:54:04;14.07;118.99
66312;HTU21D;53114;51.138;6.008;2023-05-10T05:56:34;14.07;118.99
66312;HTU21D;53114;51.138;6.008;2023-05-10T05:59:07;14.08;118.99
66312;HTU21D;53114;51.138;6.008;2023-05-10T06:01:33;14.09;118.99
66312;HTU21D;53114;51.138;6.008;2023-05-10T06:03:59;14.12;118.99
66312;HTU21D;53114;51.138;6.008;2023-05-10T06:06:26;14.15;118.99
66312;HTU21D;53114;51.138;6.008;2023-05-10T06:08:52;14.18;118.99
66312;HTU21D;53114;51.138;6.008;2023-05-10T06:11:19;14.21;118.99
66312;HTU21D;53114;51.138;6.008;2023-05-10T06:13:49;14.26;118.99
66312;HTU21D;53114;51.138;6.008;2023-05-10T06:16:15;14.29;118.99
66312;HTU21D;53114;51.138;6.008;2023-05-10T06:18:42;14.34;118.99
66312;HTU21D;53114;51.138;6.008;2023-05-10T06:21:08;14.38;118.99
66312;HTU21D;53114;51.138;6.008;2023-05-10T06:23:34;14.44;118.99
66312;HTU21D;53114;51.138;6.008;2023-05-10T06:26:01;14.45;118.99
66312;HTU21D;53114;51.138;6.008;2023-05-10T06:28:27;14.51;118.99
66312;HTU21D;53114;51.138;6.008;2023-05-10T06:30:54;14.57;118.99
66312;HTU21D;53114;51.138;6.008;2023-05-10T06:33:20;14.70;118.99
66312;HTU21D;53114;51.138;6.008;2023-05-10T06:35:46;14.81;118.99
66312;HTU21D;53114;51.138;6.008;2023-05-10T06:38:12;14.93;118.99
66312;HTU21D;53114;51.138;6.008;2023-05-10T06:40:41;15.03;118.99
66312;HTU21D;53114;51.138;6.008;2023-05-10T06:43:08;15.12;118.99
66312;HTU21D;53114;51.138;6.008;2023-05-10T06:45:34;15.24;118.99
66312;HTU21D;53114;51.138;6.008;2023-05-10T06:48:00;15.31;118.99
66312;HTU21D;53114;51.138;6.008;2023-05-10T06:50:27;15.41;118.99
66312;HTU21D;53114;51.138;6.008;2023-05-10T06:52:53;15.51;118.99
66312;HTU21D;53114;51.138;6.008;2023-05-10T06:55:19;15.58;118.99
66312;HTU21D;53114;51.138;6.008;2023-05-10T06:57:45;15.67;118.99
66312;HTU21D;53114;51.138;6.008;2023-05-10T07:00:11;15.73;118.99
66312;HTU21D;53114;51.138;6.008;2023-05-10T07:02:37;15.78;118.99
66312;HTU21D;53114;51.138;6.008;2023-05-10T07:05:04;15.85;118.99
66312;HTU21D;53114;51.138;6.008;2023-05-10T07:07:30;15.95;118.99
66312;HTU21D;53114;51.138;6.008;2023-05-10T07:09:57;16.13;118.99
66312;HTU21D;53114;51.138;6.008;2023-05-10T07:12:24;16.22;118.99
66312;HTU21D;53114;51.138;6.008;2023-05-10T07:14:50;16.21;118.99
66312;HTU21D;53114;51.138;6.008;2023-05-10T07:17:16;16.10;118.99
66312;HTU21D;53114;51.138;6.008;2023-05-10T07:19:42;15.91;118.99
66312;HTU21D;53114;51.138;6.008;2023-05-10T07:22:09;15.70;118.99
66312;HTU21D;53114;51.138;6.008;2023-05-10T07:24:35;15.52;118.99
66312;HTU21D;53114;51.138;6.008;2023-05-10T07:27:02;15.44;118.99
66312;HTU21D;53114;51.138;6.008;2023-05-10T07:29:28;15.42;118.99
66312;HTU21D;53114;51.138;6.008;2023-05-10T07:31:54;15.41;118.99
66312;HTU21D;53114;51.138;6.008;2023-05-10T07:34:20;15.40;118.99
66312;HTU21D;53114;51.138;6.008;2023-05-10T07:36:46;15.45;118.99
66312;HTU21D;53114;51.138;6.008;2023-05-10T07:39:16;15.58;118.99
66312;HTU21D;53114;51.138;6.008;2023-05-10T07:41:43;15.61;118.99
66312;HTU21D;53114;51.138;6.008;2023-05-10T07:44:09;15.59;118.99
66312;HTU21D;53114;51.138;6.008;2023-05-10T07:46:35;15.48;118.99
66312;HTU21D;53114;51.138;6.008;2023-05-10T07:49:01;15.39;118.99
66312;HTU21D;53114;51.138;6.008;2023-05-10T07:51:27;15.31;118.99
66312;HTU21D;53114;51.138;6.008;2023-05-10T07:53:54;15.27;118.99
66312;HTU21D;53114;51.138;6.008;2023-05-10T07:56:27;15.28;118.99
66312;HTU21D;53114;51.138;6.008;2023-05-10T07:58:59;15.29;118.99
66312;HTU21D;53114;51.138;6.008;2023-05-10T08:01:26;15.32;118.99
66312;HTU21D;53114;51.138;6.008;2023-05-10T08:03:58;15.31;118.99
66312;HTU21D;53114;51.138;6.008;2023-05-10T08:06:25;15.28;118.99
66312;HTU21D;53114;51.138;6.008;2023-05-10T08:08:56;15.23;118.99
66312;HTU21D;53114;51.138;6.008;2023-05-10T08:11:22;15.21;118.99
66312;HTU21D;53114;51.138;6.008;2023-05-10T08:13:50;15.16;118.99
66312;HTU21D;53114;51.138;6.008;2023-05-10T08:16:16;15.17;118.99
66312;HTU21D;53114;51.138;6.008;2023-05-10T08:18:44;15.14;118.99
66312;HTU21D;53114;51.138;6.008;2023-05-10T08:21:11;15.11;118.99
66312;HTU21D;53114;51.138;6.008;2023-05-10T08:23:37;15.13;118.99
66312;HTU21D;53114;51.138;6.008;2023-05-10T08:26:03;15.15;118.99
66312;HTU21D;53114;51.138;6.008;2023-05-10T08:28:29;15.19;118.99
66312;HTU21D;53114;51.138;6.008;2023-05-10T08:30:55;15.17;118.99
66312;HTU21D;53114;51.138;6.008;2023-05-10T08:33:21;15.15;118.99
66312;HTU21D;53114;51.138;6.008;2023-05-10T08:35:50;15.17;118.99
66312;HTU21D;53114;51.138;6.008;2023-05-10T08:38:18;15.15;118.99
66312;HTU21D;53114;51.138;6.008;2023-05-10T08:40:45;15.11;118.99
66312;HTU21D;53114;51.138;6.008;2023-05-10T08:43:12;15.07;118.99
66312;HTU21D;53114;51.138;6.008;2023-05-10T08:45:44;15.02;118.99
66312;HTU21D;53114;51.138;6.008;2023-05-10T08:48:13;15.02;118.99
66312;HTU21D;53114;51.138;6.008;2023-05-10T08:50:42;15.09;118.99
66312;HTU21D;53114;51.138;6.008;2023-05-10T08:53:12;15.18;118.99
66312;HTU21D;53114;51.138;6.008;2023-05-10T08:55:40;15.26;118.99
66312;HTU21D;53114;51.138;6.008;2023-05-10T08:58:13;15.32;118.99
66312;HTU21D;53114;51.138;6.008;2023-05-10T09:00:40;15.30;118.99
66312;HTU21D;53114;51.138;6.008;2023-05-10T09:03:09;15.26;118.99
66312;HTU21D;53114;51.138;6.008;2023-05-10T09:05:36;15.23;118.99
66312;HTU21D;53114;51.138;6.008;2023-05-10T09:08:03;15.13;118.99
66312;HTU21D;53114;51.138;6.008;2023-05-10T09:10:32;15.04;118.99
66312;HTU21D;53114;51.138;6.008;2023-05-10T09:12:59;14.98;118.99
66312;HTU21D;53114;51.138;6.008;2023-05-10T09:15:25;14.94;118.99
66312;HTU21D;53114;51.138;6.008;2023-05-10T09:18:00;14.93;118.99
66312;HTU21D;53114;51.138;6.008;2023-05-10T09:20:28;14.99;118.99
66312;HTU21D;53114;51.138;6.008;2023-05-10T09:22:57;15.10;118.99
66312;HTU21D;53114;51.138;6.008;2023-05-10T09:25:23;15.18;118.99
66312;HTU21D;53114;51.138;6.008;2023-05-10T09:27:53;15.26;118.99
66312;HTU21D;53114;51.138;6.008;2023-05-10T09:30:28;15.36;118.99
66312;HTU21D;53114;51.138;6.008;2023-05-10T09:32:58;15.41;118.99
66312;HTU21D;53114;51.138;6.008;2023-05-10T09:35:30;15.45;118.99
66312;HTU21D;53114;51.138;6.008;2023-05-10T09:38:06;15.45;118.99
66312;HTU21D;53114;51.138;6.008;2023-05-10T09:40:32;15.42;118.99
66312;HTU21D;53114;51.138;6.008;2023-05-10T09:43:00;15.38;118.99
66312;HTU21D;53114;51.138;6.008;2023-05-10T09:45:29;15.38;118.99
66312;HTU21D;53114;51.138;6.008;2023-05-10T09:48:01;15.39;118.99
66312;HTU21D;53114;51.138;6.008;2023-05-10T09:50:32;15.33;118.99
66312;HTU21D;53114;51.138;6.008;2023-05-10T09:53:01;15.30;118.99
66312;HTU21D;53114;51.138;6.008;2023-05-10T09:55:46;15.31;118.99
66312;HTU21D;53114;51.138;6.008;2023-05-10T09:58:13;15.33;118.99
66312;HTU21D;53114;51.138;6.008;2023-05-10T10:00:45;15.40;118.99
66312;HTU21D;53114;51.138;6.008;2023-05-10T10:03:19;15.52;118.99
66312;HTU21D;53114;51.138;6.008;2023-05-10T10:05:49;15.69;118.99
66312;HTU21D;53114;51.138;6.008;2023-05-10T10:08:15;15.85;118.99
66312;HTU21D;53114;51.138;6.008;2023-05-10T10:10:44;16.05;118.99
66312;HTU21D;53114;51.138;6.008;2023-05-10T10:13:12;16.20;118.99
66312;HTU21D;53114;51.138;6.008;2023-05-10T10:15:38;16.32;118.99
66312;HTU21D;53114;51.138;6.008;2023-05-10T10:18:05;16.34;118.99
66312;HTU21D;53114;51.138;6.008;2023-05-10T10:20:33;16.31;118.99
66312;HTU21D;53114;51.138;6.008;2023-05-10T10:22:59;16.27;118.99
66312;HTU21D;53114;51.138;6.008;2023-05-10T10:25:26;16.21;118.99
66312;HTU21D;53114;51.138;6.008;2023-05-10T10:28:21;16.11;118.99
66312;HTU21D;53114;51.138;6.008;2023-05-10T10:30:52;16.03;118.99
66312;HTU21D;53114;51.138;6.008;2023-05-10T10:36:26;16.02;118.99
66312;HTU21D;53114;51.138;6.008;2023-05-10T10:38:59;16.21;118.99
66312;HTU21D;53114;51.138;6.008;2023-05-10T10:41:33;16.51;118.99
66312;HTU21D;53114;51.138;6.008;2023-05-10T10:49:42;16.69;118.99
66312;HTU21D;53114;51.138;6.008;2023-05-10T10:52:28;16.60;118.99
66312;HTU21D;53114;51.138;6.008;2023-05-10T11:00:35;16.27;118.99
66312;HTU21D;53114;51.138;6.008;2023-05-10T11:03:10;16.22;118.99
66312;HTU21D;53114;51.138;6.008;2023-05-10T11:05:49;16.22;118.99
66312;HTU21D;53114;51.138;6.008;2023-05-10T11:08:32;16.34;118.99
66312;HTU21D;53114;51.138;6.008;2023-05-10T11:13:34;16.62;118.99
66312;HTU21D;53114;51.138;6.008;2023-05-10T11:16:14;16.69;118.99
66312;HTU21D;53114;51.138;6.008;2023-05-10T11:18:52;16.69;118.99
66312;HTU21D;53114;51.138;6.008;2023-05-10T11:21:19;16.84;118.99
66312;HTU21D;53114;51.138;6.008;2023-05-10T11:23:51;16.99;118.99
66312;HTU21D;53114;51.138;6.008;2023-05-10T11:26:18;16.98;118.99
66312;HTU21D;53114;51.138;6.008;2023-05-10T11:28:47;16.87;118.99
66312;HTU21D;53114;51.138;6.008;2023-05-10T11:31:17;16.80;118.99
66312;HTU21D;53114;51.138;6.008;2023-05-10T11:33:49;16.84;118.99
66312;HTU21D;53114;51.138;6.008;2023-05-10T11:36:33;16.95;118.99
66312;HTU21D;53114;51.138;6.008;2023-05-10T11:39:06;17.05;118.99
66312;HTU21D;53114;51.138;6.008;2023-05-10T11:41:55;17.08;118.99
66312;HTU21D;53114;51.138;6.008;2023-05-10T11:44:29;17.17;118.99
66312;HTU21D;53114;51.138;6.008;2023-05-10T11:47:06;17.35;118.99
66312;HTU21D;53114;51.138;6.008;2023-05-10T11:49:45;17.49;118.99
66312;HTU21D;53114;51.138;6.008;2023-05-10T11:52:18;17.54;118.99
66312;HTU21D;53114;51.138;6.008;2023-05-10T11:58:27;17.84;118.99
66312;HTU21D;53114;51.138;6.008;2023-05-10T12:01:24;18.10;118.99
66312;HTU21D;53114;51.138;6.008;2023-05-10T12:07:41;18.92;118.99
66312;HTU21D;53114;51.138;6.008;2023-05-10T12:10:28;19.09;118.99
66312;HTU21D;53114;51.138;6.008;2023-05-10T12:13:22;19.11;118.99
66312;HTU21D;53114;51.138;6.008;2023-05-10T12:16:37;19.06;118.99
66312;HTU21D;53114;51.138;6.008;2023-05-10T12:19:09;19.13;118.99
66312;HTU21D;53114;51.138;6.008;2023-05-10T12:21:44;19.24;118.99
66312;HTU21D;53114;51.138;6.008;2023-05-10T12:24:37;19.44;118.99
66312;HTU21D;53114;51.138;6.008;2023-05-10T12:27:34;19.65;118.99
66312;HTU21D;53114;51.138;6.008;2023-05-10T12:30:03;19.69;118.99
66312;HTU21D;53114;51.138;6.008;2023-05-10T12:33:00;19.70;118.99
66312;HTU21D;53114;51.138;6.008;2023-05-10T12:35:53;19.80;118.99
66312;HTU21D;53114;51.138;6.008;2023-05-10T12:39:03;19.80;118.99
66312;HTU21D;53114;51.138;6.008;2023-05-10T12:41:46;20.00;118.99
66312;HTU21D;53114;51.138;6.008;2023-05-10T12:44:32;20.06;118.99
66312;HTU21D;53114;51.138;6.008;2023-05-10T12:47:33;19.87;118.99
66312;HTU21D;53114;51.138;6.008;2023-05-10T12:50:00;19.81;118.99
66312;HTU21D;53114;51.138;6.008;2023-05-10T12:52:45;19.81;118.99
66312;HTU21D;53114;51.138;6.008;2023-05-10T12:55:15;19.70;118.99
66312;HTU21D;53114;51.138;6.008;2023-05-10T12:57:54;19.72;118.99
66312;HTU21D;53114;51.138;6.008;2023-05-10T13:00:42;19.76;118.99
66312;HTU21D;53114;51.138;6.008;2023-05-10T13:03:37;19.77;118.99
66312;HTU21D;53114;51.138;6.008;2023-05-10T13:07:21;19.56;118.99
66312;HTU21D;53114;51.138;6.008;2023-05-10T13:09:59;19.40;118.99
66312;HTU21D;53114;51.138;6.008;2023-05-10T13:12:52;19.42;118.99
66312;HTU21D;53114;51.138;6.008;2023-05-10T13:15:51;19.36;118.99
66312;HTU21D;53114;51.138;6.008;2023-05-10T13:18:48;19.39;118.99
66312;HTU21D;53114;51.138;6.008;2023-05-10T13:22:00;19.25;118.99
66312;HTU21D;53114;51.138;6.008;2023-05-10T13:28:47;19.01;118.99
66312;HTU21D;53114;51.138;6.008;2023-05-10T13:36:12;19.23;118.99
66312;HTU21D;53114;51.138;6.008;2023-05-10T13:38:49;19.28;118.99
66312;HTU21D;53114;51.138;6.008;2023-05-10T13:41:35;19.42;118.99
66312;HTU21D;53114;51.138;6.008;2023-05-10T13:44:19;19.53;118.99
66312;HTU21D;53114;51.138;6.008;2023-05-10T13:47:16;19.62;118.99
66312;HTU21D;53114;51.138;6.008;2023-05-10T13:54:16;19.69;118.99
66312;HTU21D;53114;51.138;6.008;2023-05-10T14:41:58;19.07;118.99
66312;HTU21D;53114;51.138;6.008;2023-05-10T14:53:31;18.94;118.99
66312;HTU21D;53114;51.138;6.008;2023-05-10T15:14:37;18.80;118.99
66312;HTU21D;53114;51.138;6.008;2023-05-10T15:27:29;19.10;118.99
66312;HTU21D;53114;51.138;6.008;2023-05-10T15:43:39;18.73;118.99
66312;HTU21D;53114;51.138;6.008;2023-05-10T15:52:34;18.54;118.99
66312;HTU21D;53114;51.138;6.008;2023-05-10T16:10:00;18.41;118.99
66312;HTU21D;53114;51.138;6.008;2023-05-10T16:20:18;18.49;118.99
66312;HTU21D;53114;51.138;6.008;2023-05-10T16:24:18;18.51;118.99
66312;HTU21D;53114;51.138;6.008;2023-05-10T16:27:23;18.57;118.99
66312;HTU21D;53114;51.138;6.008;2023-05-10T16:34:44;18.23;118.99
66312;HTU21D;53114;51.138;6.008;2023-05-10T16:38:35;17.99;118.99
66312;HTU21D;53114;51.138;6.008;2023-05-10T16:46:24;17.82;118.99
66312;HTU21D;53114;51.138;6.008;2023-05-10T17:02:57;17.55;118.99
66312;HTU21D;53114;51.138;6.008;2023-05-10T17:11:22;17.24;118.99
66312;HTU21D;53114;51.138;6.008;2023-05-10T17:14:18;17.18;118.99
66312;HTU21D;53114;51.138;6.008;2023-05-10T17:17:38;17.16;118.99
66312;HTU21D;53114;51.138;6.008;2023-05-10T17:20:55;17.15;118.99
66312;HTU21D;53114;51.138;6.008;2023-05-10T17:24:05;17.18;118.99
66312;HTU21D;53114;51.138;6.008;2023-05-10T17:28:18;17.28;118.99
66312;HTU21D;53114;51.138;6.008;2023-05-10T17:31:25;17.30;118.99
66312;HTU21D;53114;51.138;6.008;2023-05-10T17:48:06;17.17;118.99
66312;HTU21D;53114;51.138;6.008;2023-05-10T17:52:40;17.17;118.99
66312;HTU21D;53114;51.138;6.008;2023-05-10T17:56:31;17.13;118.99
66312;HTU21D;53114;51.138;6.008;2023-05-10T18:03:10;16.84;118.99
66312;HTU21D;53114;51.138;6.008;2023-05-10T18:05:37;16.81;118.99
66312;HTU21D;53114;51.138;6.008;2023-05-10T18:12:45;16.58;118.99
66312;HTU21D;53114;51.138;6.008;2023-05-10T18:16:37;16.46;118.99
66312;HTU21D;53114;51.138;6.008;2023-05-10T18:24:38;16.17;118.99
66312;HTU21D;53114;51.138;6.008;2023-05-10T18:28:14;16.11;118.99
66312;HTU21D;53114;51.138;6.008;2023-05-10T18:32:22;16.01;118.99
66312;HTU21D;53114;51.138;6.008;2023-05-10T18:45:25;15.58;118.99
66312;HTU21D;53114;51.138;6.008;2023-05-10T18:52:20;15.65;118.99
66312;HTU21D;53114;51.138;6.008;2023-05-10T18:54:48;15.67;118.99
66312;HTU21D;53114;51.138;6.008;2023-05-10T18:57:14;15.71;118.99
66312;HTU21D;53114;51.138;6.008;2023-05-10T18:59:40;15.69;118.99
66312;HTU21D;53114;51.138;6.008;2023-05-10T19:02:06;15.61;118.99
66312;HTU21D;53114;51.138;6.008;2023-05-10T19:04:32;15.59;118.99
66312;HTU21D;53114;51.138;6.008;2023-05-10T19:06:58;15.58;118.99
66312;HTU21D;53114;51.138;6.008;2023-05-10T19:09:26;15.63;118.99
66312;HTU21D;53114;51.138;6.008;2023-05-10T19:11:53;15.65;118.99
66312;HTU21D;53114;51.138;6.008;2023-05-10T19:14:19;15.67;118.99
66312;HTU21D;53114;51.138;6.008;2023-05-10T19:16:46;15.70;118.99
66312;HTU21D;53114;51.138;6.008;2023-05-10T19:19:12;15.67;118.99
66312;HTU21D;53114;51.138;6.008;2023-05-10T19:21:38;15.62;118.99
66312;HTU21D;53114;51.138;6.008;2023-05-10T19:24:05;15.53;118.99
66312;HTU21D;53114;51.138;6.008;2023-05-10T19:26:31;15.43;118.99
66312;HTU21D;53114;51.138;6.008;2023-05-10T19:28:59;15.33;118.99
66312;HTU21D;53114;51.138;6.008;2023-05-10T19:31:28;15.27;118.99
66312;HTU21D;53114;51.138;6.008;2023-05-10T19:33:54;15.21;118.99
66312;HTU21D;53114;51.138;6.008;2023-05-10T19:36:20;15.17;118.99
66312;HTU21D;53114;51.138;6.008;2023-05-10T19:38:46;15.14;118.99
66312;HTU21D;53114;51.138;6.008;2023-05-10T19:41:13;15.13;118.99
66312;HTU21D;53114;51.138;6.008;2023-05-10T19:43:40;15.15;118.99
66312;HTU21D;53114;51.138;6.008;2023-05-10T19:46:06;15.18;118.99
66312;HTU21D;53114;51.138;6.008;2023-05-10T19:48:34;15.19;118.99
66312;HTU21D;53114;51.138;6.008;2023-05-10T19:51:02;15.23;118.99
66312;HTU21D;53114;51.138;6.008;2023-05-10T19:53:28;15.28;118.99
66312;HTU21D;53114;51.138;6.008;2023-05-10T19:55:54;15.36;118.99